sensor_id;sensor_type;location;lat;lon;timestamp;temperature;humidity
28773;DHT22;15925;51.222;5.678;2023-02-28T00:00:23;0.90;99.90
28773;DHT22;15925;51.222;5.678;2023-02-28T00:02:49;0.80;99.90
28773;DHT22;15925;51.222;5.678;2023-02-28T00:05:18;0.80;99.90
28773;DHT22;15925;51.222;5.678;2023-02-28T00:07:44;0.80;99.90
28773;DHT22;15925;51.222;5.678;2023-02-28T00:10:12;0.90;99.90
28773;DHT22;15925;51.222;5.678;2023-02-28T00:12:38;0.80;99.90
28773;DHT22;15925;51.222;5.678;2023-02-28T00:15:09;0.90;99.90
28773;DHT22;15925;51.222;5.678;2023-02-28T00:17:35;0.80;99.90
28773;DHT22;15925;51.222;5.678;2023-02-28T00:20:02;0.90;99.90
28773;DHT22;15925;51.222;5.678;2023-02-28T00:22:29;0.90;99.90
28773;DHT22;15925;51.222;5.678;2023-02-28T00:24:54;0.80;99.90
28773;DHT22;15925;51.222;5.678;2023-02-28T00:27:20;0.80;99.90
28773;DHT22;15925;51.222;5.678;2023-02-28T00:29:49;0.80;99.90
28773;DHT22;15925;51.222;5.678;2023-02-28T00:32:15;0.60;99.90
28773;DHT22;15925;51.222;5.678;2023-02-28T00:34:41;0.60;99.90
28773;DHT22;15925;51.222;5.678;2023-02-28T00:37:09;0.60;99.90
28773;DHT22;15925;51.222;5.678;2023-02-28T00:39:38;0.50;99.90
28773;DHT22;15925;51.222;5.678;2023-02-28T00:42:04;0.40;99.90
28773;DHT22;15925;51.222;5.678;2023-02-28T00:44:30;0.40;99.90
28773;DHT22;15925;51.222;5.678;2023-02-28T00:46:57;0.60;99.90
28773;DHT22;15925;51.222;5.678;2023-02-28T00:49:24;0.50;99.90
28773;DHT22;15925;51.222;5.678;2023-02-28T00:51:51;0.70;99.90
28773;DHT22;15925;51.222;5.678;2023-02-28T00:54:19;0.60;99.90
28773;DHT22;15925;51.222;5.678;2023-02-28T00:56:47;0.50;99.90
28773;DHT22;15925;51.222;5.678;2023-02-28T00:59:13;0.50;99.90
28773;DHT22;15925;51.222;5.678;2023-02-28T01:01:40;0.50;99.90
28773;DHT22;15925;51.222;5.678;2023-02-28T01:04:06;0.40;99.90
28773;DHT22;15925;51.222;5.678;2023-02-28T01:06:32;0.30;99.90
28773;DHT22;15925;51.222;5.678;2023-02-28T01:09:00;0.40;99.90
28773;DHT22;15925;51.222;5.678;2023-02-28T01:11:25;0.30;99.90
28773;DHT22;15925;51.222;5.678;2023-02-28T01:13:52;0.30;99.90
28773;DHT22;15925;51.222;5.678;2023-02-28T01:16:18;0.30;99.90
28773;DHT22;15925;51.222;5.678;2023-02-28T01:18:44;0.30;99.90
28773;DHT22;15925;51.222;5.678;2023-02-28T01:21:14;0.20;99.90
28773;DHT22;15925;51.222;5.678;2023-02-28T01:23:40;0.20;99.90
28773;DHT22;15925;51.222;5.678;2023-02-28T01:26:08;0.20;99.90
28773;DHT22;15925;51.222;5.678;2023-02-28T01:28:34;0.20;99.90
28773;DHT22;15925;51.222;5.678;2023-02-28T01:31:00;0.20;99.90
28773;DHT22;15925;51.222;5.678;2023-02-28T01:33:26;0.40;99.90
28773;DHT22;15925;51.222;5.678;2023-02-28T01:36:03;0.30;99.90
28773;DHT22;15925;51.222;5.678;2023-02-28T01:38:29;0.30;99.90
28773;DHT22;15925;51.222;5.678;2023-02-28T01:40:55;0.30;99.90
28773;DHT22;15925;51.222;5.678;2023-02-28T01:45:50;0.20;99.90
28773;DHT22;15925;51.222;5.678;2023-02-28T01:48:16;0.20;99.90
28773;DHT22;15925;51.222;5.678;2023-02-28T01:50:46;0.20;99.90
28773;DHT22;15925;51.222;5.678;2023-02-28T01:53:16;0.10;99.90
28773;DHT22;15925;51.222;5.678;2023-02-28T01:55:47;0.20;99.90
28773;DHT22;15925;51.222;5.678;2023-02-28T01:58:13;0.20;99.90
28773;DHT22;15925;51.222;5.678;2023-02-28T02:00:39;0.10;99.90
28773;DHT22;15925;51.222;5.678;2023-02-28T02:03:13;0.10;99.90
28773;DHT22;15925;51.222;5.678;2023-02-28T02:05:40;0.00;99.90
28773;DHT22;15925;51.222;5.678;2023-02-28T02:08:12;-0.10;99.90
28773;DHT22;15925;51.222;5.678;2023-02-28T02:10:50;0.00;99.90
28773;DHT22;15925;51.222;5.678;2023-02-28T02:18:34;-0.10;99.90
28773;DHT22;15925;51.222;5.678;2023-02-28T02:35:05;0.00;99.90
28773;DHT22;15925;51.222;5.678;2023-02-28T02:37:52;-0.10;99.90
28773;DHT22;15925;51.222;5.678;2023-02-28T02:40:33;-0.20;99.90
28773;DHT22;15925;51.222;5.678;2023-02-28T02:45:55;-0.20;99.90
28773;DHT22;15925;51.222;5.678;2023-02-28T02:48:27;-0.10;99.90
28773;DHT22;15925;51.222;5.678;2023-02-28T02:50:59;-0.10;99.90
28773;DHT22;15925;51.222;5.678;2023-02-28T02:53:40;-0.10;99.90
28773;DHT22;15925;51.222;5.678;2023-02-28T02:56:08;-0.20;99.90
28773;DHT22;15925;51.222;5.678;2023-02-28T02:58:38;-0.20;99.90
28773;DHT22;15925;51.222;5.678;2023-02-28T03:01:14;-0.20;99.90
28773;DHT22;15925;51.222;5.678;2023-02-28T03:03:41;-0.20;99.90
28773;DHT22;15925;51.222;5.678;2023-02-28T03:06:08;-0.20;99.90
28773;DHT22;15925;51.222;5.678;2023-02-28T03:08:36;-0.20;99.90
28773;DHT22;15925;51.222;5.678;2023-02-28T03:11:05;-0.10;99.90
28773;DHT22;15925;51.222;5.678;2023-02-28T03:13:55;-0.20;99.90
28773;DHT22;15925;51.222;5.678;2023-02-28T03:16:34;-0.20;99.90
28773;DHT22;15925;51.222;5.678;2023-02-28T03:21:43;-0.10;99.90
28773;DHT22;15925;51.222;5.678;2023-02-28T03:24:24;-0.10;99.90
28773;DHT22;15925;51.222;5.678;2023-02-28T03:26:57;-0.10;99.90
28773;DHT22;15925;51.222;5.678;2023-02-28T03:29:34;-0.10;99.90
28773;DHT22;15925;51.222;5.678;2023-02-28T03:35:06;0.00;99.90
28773;DHT22;15925;51.222;5.678;2023-02-28T03:37:35;-0.10;99.90
28773;DHT22;15925;51.222;5.678;2023-02-28T03:40:09;-0.10;99.90
28773;DHT22;15925;51.222;5.678;2023-02-28T03:42:41;-0.10;99.90
28773;DHT22;15925;51.222;5.678;2023-02-28T03:45:12;-0.10;99.90
28773;DHT22;15925;51.222;5.678;2023-02-28T03:47:51;-0.10;99.90
28773;DHT22;15925;51.222;5.678;2023-02-28T03:50:34;0.00;99.90
28773;DHT22;15925;51.222;5.678;2023-02-28T03:53:11;0.00;99.90
28773;DHT22;15925;51.222;5.678;2023-02-28T03:55:45;-0.10;99.90
28773;DHT22;15925;51.222;5.678;2023-02-28T03:58:20;-0.10;99.90
28773;DHT22;15925;51.222;5.678;2023-02-28T04:00:51;-0.10;99.90
28773;DHT22;15925;51.222;5.678;2023-02-28T04:03:20;-0.10;99.90
28773;DHT22;15925;51.222;5.678;2023-02-28T04:05:55;-0.20;99.90
28773;DHT22;15925;51.222;5.678;2023-02-28T04:08:22;-0.20;99.90
28773;DHT22;15925;51.222;5.678;2023-02-28T04:10:56;-0.10;99.90
28773;DHT22;15925;51.222;5.678;2023-02-28T04:13:23;-0.10;99.90
28773;DHT22;15925;51.222;5.678;2023-02-28T04:15:49;-0.10;99.90
28773;DHT22;15925;51.222;5.678;2023-02-28T04:18:14;0.00;99.90
28773;DHT22;15925;51.222;5.678;2023-02-28T04:20:40;0.00;99.90
28773;DHT22;15925;51.222;5.678;2023-02-28T04:23:06;0.00;99.90
28773;DHT22;15925;51.222;5.678;2023-02-28T04:25:31;0.00;99.90
28773;DHT22;15925;51.222;5.678;2023-02-28T04:27:57;0.00;99.90
28773;DHT22;15925;51.222;5.678;2023-02-28T04:30:23;0.00;99.90
28773;DHT22;15925;51.222;5.678;2023-02-28T04:32:49;-0.20;99.90
28773;DHT22;15925;51.222;5.678;2023-02-28T04:35:14;-0.10;99.90
28773;DHT22;15925;51.222;5.678;2023-02-28T04:37:41;-0.10;99.90
28773;DHT22;15925;51.222;5.678;2023-02-28T04:40:07;-0.10;99.90
28773;DHT22;15925;51.222;5.678;2023-02-28T04:42:33;-0.10;99.90
28773;DHT22;15925;51.222;5.678;2023-02-28T04:45:04;0.00;99.90
28773;DHT22;15925;51.222;5.678;2023-02-28T04:47:30;0.00;99.90
28773;DHT22;15925;51.222;5.678;2023-02-28T04:49:56;0.00;99.90
28773;DHT22;15925;51.222;5.678;2023-02-28T04:52:22;0.10;99.90
28773;DHT22;15925;51.222;5.678;2023-02-28T04:54:48;0.10;99.90
28773;DHT22;15925;51.222;5.678;2023-02-28T04:57:14;0.00;99.90
28773;DHT22;15925;51.222;5.678;2023-02-28T04:59:40;0.00;99.90
28773;DHT22;15925;51.222;5.678;2023-02-28T05:02:06;-0.10;99.90
28773;DHT22;15925;51.222;5.678;2023-02-28T05:04:33;-0.20;99.90
28773;DHT22;15925;51.222;5.678;2023-02-28T05:07:00;-0.30;99.90
28773;DHT22;15925;51.222;5.678;2023-02-28T05:09:26;-0.10;99.90
28773;DHT22;15925;51.222;5.678;2023-02-28T05:11:53;-0.20;99.90
28773;DHT22;15925;51.222;5.678;2023-02-28T05:14:19;-0.10;99.90
28773;DHT22;15925;51.222;5.678;2023-02-28T05:16:45;-0.10;99.90
28773;DHT22;15925;51.222;5.678;2023-02-28T05:19:11;0.00;99.90
28773;DHT22;15925;51.222;5.678;2023-02-28T05:21:39;0.00;99.90
28773;DHT22;15925;51.222;5.678;2023-02-28T05:24:10;-0.10;99.90
28773;DHT22;15925;51.222;5.678;2023-02-28T05:26:38;-0.40;99.90
28773;DHT22;15925;51.222;5.678;2023-02-28T05:29:04;-0.40;99.90
28773;DHT22;15925;51.222;5.678;2023-02-28T05:31:30;-0.50;99.90
28773;DHT22;15925;51.222;5.678;2023-02-28T05:33:56;-0.60;99.90
28773;DHT22;15925;51.222;5.678;2023-02-28T05:36:23;-0.60;99.90
28773;DHT22;15925;51.222;5.678;2023-02-28T05:38:50;-0.70;99.90
28773;DHT22;15925;51.222;5.678;2023-02-28T05:41:17;-0.80;99.90
28773;DHT22;15925;51.222;5.678;2023-02-28T05:43:43;-0.90;99.90
28773;DHT22;15925;51.222;5.678;2023-02-28T05:46:11;-0.80;99.90
28773;DHT22;15925;51.222;5.678;2023-02-28T05:48:38;-0.90;99.90
28773;DHT22;15925;51.222;5.678;2023-02-28T05:51:04;-1.00;99.90
28773;DHT22;15925;51.222;5.678;2023-02-28T05:53:31;-0.90;99.90
28773;DHT22;15925;51.222;5.678;2023-02-28T05:55:57;-0.90;99.90
28773;DHT22;15925;51.222;5.678;2023-02-28T05:58:23;-0.90;99.90
28773;DHT22;15925;51.222;5.678;2023-02-28T06:00:51;-1.00;99.90
28773;DHT22;15925;51.222;5.678;2023-02-28T06:03:17;-1.00;99.90
28773;DHT22;15925;51.222;5.678;2023-02-28T06:05:42;-1.10;99.90
28773;DHT22;15925;51.222;5.678;2023-02-28T06:08:08;-1.00;99.90
28773;DHT22;15925;51.222;5.678;2023-02-28T06:10:34;-1.10;99.90
28773;DHT22;15925;51.222;5.678;2023-02-28T06:13:01;-1.00;99.90
28773;DHT22;15925;51.222;5.678;2023-02-28T06:15:28;-1.00;99.90
28773;DHT22;15925;51.222;5.678;2023-02-28T06:17:54;-1.00;99.90
28773;DHT22;15925;51.222;5.678;2023-02-28T06:20:22;-0.90;99.90
28773;DHT22;15925;51.222;5.678;2023-02-28T06:22:49;-0.90;99.90
28773;DHT22;15925;51.222;5.678;2023-02-28T06:25:16;-0.90;99.90
28773;DHT22;15925;51.222;5.678;2023-02-28T06:27:42;-0.90;99.90
28773;DHT22;15925;51.222;5.678;2023-02-28T06:30:09;-0.90;99.90
28773;DHT22;15925;51.222;5.678;2023-02-28T06:32:35;-0.80;99.90
28773;DHT22;15925;51.222;5.678;2023-02-28T06:35:02;-0.80;99.90
28773;DHT22;15925;51.222;5.678;2023-02-28T06:37:27;-0.80;99.90
28773;DHT22;15925;51.222;5.678;2023-02-28T06:39:57;-0.80;99.90
28773;DHT22;15925;51.222;5.678;2023-02-28T06:42:23;-0.70;99.90
28773;DHT22;15925;51.222;5.678;2023-02-28T06:44:57;-0.80;99.90
28773;DHT22;15925;51.222;5.678;2023-02-28T06:47:23;-0.90;99.90
28773;DHT22;15925;51.222;5.678;2023-02-28T06:49:50;-0.90;99.90
28773;DHT22;15925;51.222;5.678;2023-02-28T06:52:16;-0.90;99.90
28773;DHT22;15925;51.222;5.678;2023-02-28T06:54:41;-0.90;99.90
28773;DHT22;15925;51.222;5.678;2023-02-28T06:57:08;-0.90;99.90
28773;DHT22;15925;51.222;5.678;2023-02-28T06:59:33;-0.90;99.90
28773;DHT22;15925;51.222;5.678;2023-02-28T07:02:00;-0.90;99.90
28773;DHT22;15925;51.222;5.678;2023-02-28T07:04:28;-0.90;99.90
28773;DHT22;15925;51.222;5.678;2023-02-28T07:06:55;-0.90;99.90
28773;DHT22;15925;51.222;5.678;2023-02-28T07:09:24;-0.80;99.90
28773;DHT22;15925;51.222;5.678;2023-02-28T07:11:53;-0.80;99.90
28773;DHT22;15925;51.222;5.678;2023-02-28T07:14:18;-0.80;99.90
28773;DHT22;15925;51.222;5.678;2023-02-28T07:16:44;-0.70;99.90
28773;DHT22;15925;51.222;5.678;2023-02-28T07:19:10;-0.70;99.90
28773;DHT22;15925;51.222;5.678;2023-02-28T07:21:36;-0.70;99.90
28773;DHT22;15925;51.222;5.678;2023-02-28T07:24:02;-0.60;99.90
28773;DHT22;15925;51.222;5.678;2023-02-28T07:26:28;-0.60;99.90
28773;DHT22;15925;51.222;5.678;2023-02-28T07:28:54;-0.50;99.90
28773;DHT22;15925;51.222;5.678;2023-02-28T07:31:19;-0.50;99.90
28773;DHT22;15925;51.222;5.678;2023-02-28T07:33:45;-0.40;99.90
28773;DHT22;15925;51.222;5.678;2023-02-28T07:36:13;-0.40;99.90
28773;DHT22;15925;51.222;5.678;2023-02-28T07:38:42;-0.30;99.90
28773;DHT22;15925;51.222;5.678;2023-02-28T07:41:08;-0.30;99.90
28773;DHT22;15925;51.222;5.678;2023-02-28T07:43:34;-0.20;99.90
28773;DHT22;15925;51.222;5.678;2023-02-28T07:46:06;-0.20;99.90
28773;DHT22;15925;51.222;5.678;2023-02-28T07:48:32;-0.20;99.90
28773;DHT22;15925;51.222;5.678;2023-02-28T07:50:59;-0.10;99.90
28773;DHT22;15925;51.222;5.678;2023-02-28T07:53:25;-0.10;99.90
28773;DHT22;15925;51.222;5.678;2023-02-28T07:55:56;0.00;99.90
28773;DHT22;15925;51.222;5.678;2023-02-28T07:58:23;0.00;99.90
28773;DHT22;15925;51.222;5.678;2023-02-28T08:00:49;0.10;99.90
28773;DHT22;15925;51.222;5.678;2023-02-28T08:03:16;0.10;99.90
28773;DHT22;15925;51.222;5.678;2023-02-28T08:05:44;0.20;99.90
28773;DHT22;15925;51.222;5.678;2023-02-28T08:08:10;0.20;99.90
28773;DHT22;15925;51.222;5.678;2023-02-28T08:10:36;0.30;99.90
28773;DHT22;15925;51.222;5.678;2023-02-28T08:13:02;0.40;99.90
28773;DHT22;15925;51.222;5.678;2023-02-28T08:15:27;0.40;99.90
28773;DHT22;15925;51.222;5.678;2023-02-28T08:17:53;0.40;99.90
28773;DHT22;15925;51.222;5.678;2023-02-28T08:20:22;0.50;99.90
28773;DHT22;15925;51.222;5.678;2023-02-28T08:22:48;0.60;99.90
28773;DHT22;15925;51.222;5.678;2023-02-28T08:25:14;0.60;99.90
28773;DHT22;15925;51.222;5.678;2023-02-28T08:27:41;0.70;99.90
28773;DHT22;15925;51.222;5.678;2023-02-28T08:30:07;0.70;99.90
28773;DHT22;15925;51.222;5.678;2023-02-28T08:32:35;0.80;99.90
28773;DHT22;15925;51.222;5.678;2023-02-28T08:35:01;0.80;99.90
28773;DHT22;15925;51.222;5.678;2023-02-28T08:37:28;0.90;99.90
28773;DHT22;15925;51.222;5.678;2023-02-28T08:39:54;0.90;99.90
28773;DHT22;15925;51.222;5.678;2023-02-28T08:42:20;1.00;99.90
28773;DHT22;15925;51.222;5.678;2023-02-28T08:44:46;1.10;99.90
28773;DHT22;15925;51.222;5.678;2023-02-28T08:47:13;1.20;99.90
28773;DHT22;15925;51.222;5.678;2023-02-28T08:49:39;1.20;99.90
28773;DHT22;15925;51.222;5.678;2023-02-28T08:52:05;1.30;99.90
28773;DHT22;15925;51.222;5.678;2023-02-28T08:54:31;1.30;99.90
28773;DHT22;15925;51.222;5.678;2023-02-28T08:56:58;1.40;99.90
28773;DHT22;15925;51.222;5.678;2023-02-28T08:59:24;1.50;99.90
28773;DHT22;15925;51.222;5.678;2023-02-28T09:01:50;1.60;99.90
28773;DHT22;15925;51.222;5.678;2023-02-28T09:04:16;1.70;99.90
28773;DHT22;15925;51.222;5.678;2023-02-28T09:06:42;1.80;99.90
28773;DHT22;15925;51.222;5.678;2023-02-28T09:09:08;1.90;99.90
28773;DHT22;15925;51.222;5.678;2023-02-28T09:11:34;1.90;99.90
28773;DHT22;15925;51.222;5.678;2023-02-28T09:14:01;1.90;99.90
28773;DHT22;15925;51.222;5.678;2023-02-28T09:16:30;2.10;99.90
28773;DHT22;15925;51.222;5.678;2023-02-28T09:18:56;2.20;99.90
28773;DHT22;15925;51.222;5.678;2023-02-28T09:21:23;2.30;99.90
28773;DHT22;15925;51.222;5.678;2023-02-28T09:23:50;2.40;99.90
28773;DHT22;15925;51.222;5.678;2023-02-28T09:26:27;2.40;99.90
28773;DHT22;15925;51.222;5.678;2023-02-28T09:28:54;2.50;99.90
28773;DHT22;15925;51.222;5.678;2023-02-28T09:31:24;2.70;99.90
28773;DHT22;15925;51.222;5.678;2023-02-28T09:33:51;2.70;99.90
28773;DHT22;15925;51.222;5.678;2023-02-28T09:36:17;2.80;99.90
28773;DHT22;15925;51.222;5.678;2023-02-28T09:38:43;3.00;99.90
28773;DHT22;15925;51.222;5.678;2023-02-28T09:41:16;3.00;99.90
28773;DHT22;15925;51.222;5.678;2023-02-28T09:43:55;3.10;99.90
28773;DHT22;15925;51.222;5.678;2023-02-28T09:46:34;3.20;99.90
28773;DHT22;15925;51.222;5.678;2023-02-28T09:49:12;3.30;99.90
28773;DHT22;15925;51.222;5.678;2023-02-28T09:54:21;3.50;99.90
28773;DHT22;15925;51.222;5.678;2023-02-28T09:57:17;3.70;99.90
28773;DHT22;15925;51.222;5.678;2023-02-28T10:05:12;3.90;99.90
28773;DHT22;15925;51.222;5.678;2023-02-28T10:08:00;4.00;99.90
28773;DHT22;15925;51.222;5.678;2023-02-28T10:10:50;4.10;99.90
28773;DHT22;15925;51.222;5.678;2023-02-28T10:13:35;4.20;99.90
28773;DHT22;15925;51.222;5.678;2023-02-28T10:16:11;4.30;99.90
28773;DHT22;15925;51.222;5.678;2023-02-28T10:18:52;4.40;99.90
28773;DHT22;15925;51.222;5.678;2023-02-28T10:23:55;4.50;99.90
28773;DHT22;15925;51.222;5.678;2023-02-28T10:26:22;4.60;99.90
28773;DHT22;15925;51.222;5.678;2023-02-28T10:28:51;4.70;99.90
28773;DHT22;15925;51.222;5.678;2023-02-28T10:31:20;4.80;99.90
28773;DHT22;15925;51.222;5.678;2023-02-28T10:33:46;4.80;99.90
28773;DHT22;15925;51.222;5.678;2023-02-28T10:36:15;4.90;99.90
28773;DHT22;15925;51.222;5.678;2023-02-28T10:38:43;5.00;99.90
28773;DHT22;15925;51.222;5.678;2023-02-28T10:41:26;5.00;99.90
28773;DHT22;15925;51.222;5.678;2023-02-28T10:43:53;5.00;99.90
28773;DHT22;15925;51.222;5.678;2023-02-28T10:46:40;5.00;99.90
28773;DHT22;15925;51.222;5.678;2023-02-28T10:49:14;5.10;99.90
28773;DHT22;15925;51.222;5.678;2023-02-28T10:51:41;5.10;99.90
28773;DHT22;15925;51.222;5.678;2023-02-28T10:54:20;5.20;99.90
28773;DHT22;15925;51.222;5.678;2023-02-28T10:57:15;5.30;99.90
28773;DHT22;15925;51.222;5.678;2023-02-28T10:59:41;5.30;99.90
28773;DHT22;15925;51.222;5.678;2023-02-28T11:02:31;5.40;99.90
28773;DHT22;15925;51.222;5.678;2023-02-28T11:04:57;5.50;99.90
28773;DHT22;15925;51.222;5.678;2023-02-28T11:07:25;5.50;99.90
28773;DHT22;15925;51.222;5.678;2023-02-28T11:09:52;5.60;99.90
28773;DHT22;15925;51.222;5.678;2023-02-28T11:12:26;5.70;99.90
28773;DHT22;15925;51.222;5.678;2023-02-28T11:15:02;5.70;99.90
28773;DHT22;15925;51.222;5.678;2023-02-28T11:17:33;5.80;99.90
28773;DHT22;15925;51.222;5.678;2023-02-28T11:20:02;5.80;99.90
28773;DHT22;15925;51.222;5.678;2023-02-28T11:22:33;5.90;99.90
28773;DHT22;15925;51.222;5.678;2023-02-28T11:25:23;5.90;99.90
28773;DHT22;15925;51.222;5.678;2023-02-28T11:27:52;6.00;99.90
28773;DHT22;15925;51.222;5.678;2023-02-28T11:30:27;6.10;99.90
28773;DHT22;15925;51.222;5.678;2023-02-28T11:32:53;6.00;99.90
28773;DHT22;15925;51.222;5.678;2023-02-28T11:37:51;6.10;99.90
28773;DHT22;15925;51.222;5.678;2023-02-28T11:40:30;6.20;99.90
28773;DHT22;15925;51.222;5.678;2023-02-28T11:43:09;6.20;99.90
28773;DHT22;15925;51.222;5.678;2023-02-28T11:48:45;6.30;99.90
28773;DHT22;15925;51.222;5.678;2023-02-28T11:51:26;6.40;99.90
28773;DHT22;15925;51.222;5.678;2023-02-28T11:54:21;6.40;99.90
28773;DHT22;15925;51.222;5.678;2023-02-28T11:56:57;6.50;99.90
28773;DHT22;15925;51.222;5.678;2023-02-28T12:02:24;6.60;99.90
28773;DHT22;15925;51.222;5.678;2023-02-28T12:05:04;6.60;99.90
28773;DHT22;15925;51.222;5.678;2023-02-28T12:10:11;6.70;99.90
28773;DHT22;15925;51.222;5.678;2023-02-28T12:12:48;6.60;99.90
28773;DHT22;15925;51.222;5.678;2023-02-28T12:18:12;6.70;99.90
28773;DHT22;15925;51.222;5.678;2023-02-28T12:20:49;6.70;99.90
28773;DHT22;15925;51.222;5.678;2023-02-28T12:23:52;6.80;99.90
28773;DHT22;15925;51.222;5.678;2023-02-28T12:26:34;6.90;99.90
28773;DHT22;15925;51.222;5.678;2023-02-28T12:29:29;7.00;99.90
28773;DHT22;15925;51.222;5.678;2023-02-28T12:32:16;7.00;99.90
28773;DHT22;15925;51.222;5.678;2023-02-28T12:34:45;7.00;99.90
28773;DHT22;15925;51.222;5.678;2023-02-28T12:43:02;7.20;99.90
28773;DHT22;15925;51.222;5.678;2023-02-28T12:48:10;6.80;99.90
28773;DHT22;15925;51.222;5.678;2023-02-28T12:50:40;6.70;99.90
28773;DHT22;15925;51.222;5.678;2023-02-28T12:53:23;6.80;99.90
28773;DHT22;15925;51.222;5.678;2023-02-28T12:56:16;6.80;99.90
28773;DHT22;15925;51.222;5.678;2023-02-28T12:58:48;7.00;99.90
28773;DHT22;15925;51.222;5.678;2023-02-28T13:03:59;6.90;99.90
28773;DHT22;15925;51.222;5.678;2023-02-28T13:06:37;7.00;99.90
28773;DHT22;15925;51.222;5.678;2023-02-28T13:11:46;7.20;99.90
28773;DHT22;15925;51.222;5.678;2023-02-28T13:14:23;7.20;99.90
28773;DHT22;15925;51.222;5.678;2023-02-28T13:19:57;7.20;99.90
28773;DHT22;15925;51.222;5.678;2023-02-28T13:22:42;7.20;99.90
28773;DHT22;15925;51.222;5.678;2023-02-28T13:28:00;7.10;99.90
28773;DHT22;15925;51.222;5.678;2023-02-28T13:38:41;6.90;99.90
28773;DHT22;15925;51.222;5.678;2023-02-28T13:44:07;7.00;99.90
28773;DHT22;15925;51.222;5.678;2023-02-28T13:49:25;7.00;99.90
28773;DHT22;15925;51.222;5.678;2023-02-28T14:05:21;7.30;99.90
28773;DHT22;15925;51.222;5.678;2023-02-28T14:07:54;7.30;99.90
28773;DHT22;15925;51.222;5.678;2023-02-28T14:10:29;7.40;99.90
28773;DHT22;15925;51.222;5.678;2023-02-28T14:13:02;7.40;99.90
28773;DHT22;15925;51.222;5.678;2023-02-28T14:16:20;7.40;99.90
28773;DHT22;15925;51.222;5.678;2023-02-28T14:21:22;7.20;99.90
28773;DHT22;15925;51.222;5.678;2023-02-28T14:27:04;7.30;99.90
28773;DHT22;15925;51.222;5.678;2023-02-28T14:38:22;7.50;99.90
28773;DHT22;15925;51.222;5.678;2023-02-28T14:40:52;7.40;99.90
28773;DHT22;15925;51.222;5.678;2023-02-28T14:43:23;7.40;99.90
28773;DHT22;15925;51.222;5.678;2023-02-28T14:45:55;7.40;99.90
28773;DHT22;15925;51.222;5.678;2023-02-28T14:48:22;7.40;99.90
28773;DHT22;15925;51.222;5.678;2023-02-28T14:51:00;7.50;99.90
28773;DHT22;15925;51.222;5.678;2023-02-28T14:53:28;7.40;99.90
28773;DHT22;15925;51.222;5.678;2023-02-28T14:55:55;7.40;99.90
28773;DHT22;15925;51.222;5.678;2023-02-28T14:58:32;7.40;99.90
28773;DHT22;15925;51.222;5.678;2023-02-28T15:01:01;7.40;99.90
28773;DHT22;15925;51.222;5.678;2023-02-28T15:03:37;7.30;99.90
28773;DHT22;15925;51.222;5.678;2023-02-28T15:06:15;7.40;99.90
28773;DHT22;15925;51.222;5.678;2023-02-28T15:08:46;7.40;99.90
28773;DHT22;15925;51.222;5.678;2023-02-28T15:11:19;7.40;99.90
28773;DHT22;15925;51.222;5.678;2023-02-28T15:13:48;7.30;99.90
28773;DHT22;15925;51.222;5.678;2023-02-28T15:16:31;7.40;99.90
28773;DHT22;15925;51.222;5.678;2023-02-28T15:19:31;7.40;99.90
28773;DHT22;15925;51.222;5.678;2023-02-28T15:22:02;7.40;99.90
28773;DHT22;15925;51.222;5.678;2023-02-28T15:24:43;7.40;99.90
28773;DHT22;15925;51.222;5.678;2023-02-28T15:27:25;7.40;99.90
28773;DHT22;15925;51.222;5.678;2023-02-28T15:29:58;7.40;99.90
28773;DHT22;15925;51.222;5.678;2023-02-28T15:32:31;7.50;99.90
28773;DHT22;15925;51.222;5.678;2023-02-28T15:34:59;7.50;99.90
28773;DHT22;15925;51.222;5.678;2023-02-28T15:40:41;7.50;99.90
28773;DHT22;15925;51.222;5.678;2023-02-28T15:43:18;7.50;99.90
28773;DHT22;15925;51.222;5.678;2023-02-28T15:46:08;7.50;99.90
28773;DHT22;15925;51.222;5.678;2023-02-28T15:48:55;7.50;99.90
28773;DHT22;15925;51.222;5.678;2023-02-28T15:54:39;7.30;99.90
28773;DHT22;15925;51.222;5.678;2023-02-28T15:56:52;7.20;99.90
28773;DHT22;15925;51.222;5.678;2023-02-28T15:59:25;7.20;99.90
28773;DHT22;15925;51.222;5.678;2023-02-28T16:04:36;7.20;99.90
28773;DHT22;15925;51.222;5.678;2023-02-28T16:07:05;7.30;99.90
28773;DHT22;15925;51.222;5.678;2023-02-28T16:09:31;7.30;99.90
28773;DHT22;15925;51.222;5.678;2023-02-28T16:12:02;7.40;99.90
28773;DHT22;15925;51.222;5.678;2023-02-28T16:14:29;7.30;99.90
28773;DHT22;15925;51.222;5.678;2023-02-28T16:17:07;7.30;99.90
28773;DHT22;15925;51.222;5.678;2023-02-28T16:19:38;7.20;99.90
28773;DHT22;15925;51.222;5.678;2023-02-28T16:22:04;7.00;99.90
28773;DHT22;15925;51.222;5.678;2023-02-28T16:24:29;6.90;99.90
28773;DHT22;15925;51.222;5.678;2023-02-28T16:26:57;6.80;99.90
28773;DHT22;15925;51.222;5.678;2023-02-28T16:29:34;6.80;99.90
28773;DHT22;15925;51.222;5.678;2023-02-28T16:32:01;6.80;99.90
28773;DHT22;15925;51.222;5.678;2023-02-28T16:34:29;6.80;99.90
28773;DHT22;15925;51.222;5.678;2023-02-28T16:36:55;6.80;99.90
28773;DHT22;15925;51.222;5.678;2023-02-28T16:39:20;6.90;99.90
28773;DHT22;15925;51.222;5.678;2023-02-28T16:41:47;6.80;99.90
28773;DHT22;15925;51.222;5.678;2023-02-28T16:44:28;6.70;99.90
28773;DHT22;15925;51.222;5.678;2023-02-28T16:46:55;6.60;99.90
28773;DHT22;15925;51.222;5.678;2023-02-28T16:49:21;6.60;99.90
28773;DHT22;15925;51.222;5.678;2023-02-28T16:51:48;6.60;99.90
28773;DHT22;15925;51.222;5.678;2023-02-28T16:54:17;6.60;99.90
28773;DHT22;15925;51.222;5.678;2023-02-28T16:56:46;6.60;99.90
28773;DHT22;15925;51.222;5.678;2023-02-28T16:59:12;6.50;99.90
28773;DHT22;15925;51.222;5.678;2023-02-28T17:01:39;6.40;99.90
28773;DHT22;15925;51.222;5.678;2023-02-28T17:04:05;6.30;99.90
28773;DHT22;15925;51.222;5.678;2023-02-28T17:06:31;6.30;99.90
28773;DHT22;15925;51.222;5.678;2023-02-28T17:09:00;6.20;99.90
28773;DHT22;15925;51.222;5.678;2023-02-28T17:11:29;6.10;99.90
28773;DHT22;15925;51.222;5.678;2023-02-28T17:13:55;6.10;99.90
28773;DHT22;15925;51.222;5.678;2023-02-28T17:16:33;5.90;99.90
28773;DHT22;15925;51.222;5.678;2023-02-28T17:19:05;5.70;99.90
28773;DHT22;15925;51.222;5.678;2023-02-28T17:21:32;5.70;99.90
28773;DHT22;15925;51.222;5.678;2023-02-28T17:23:59;5.50;99.90
28773;DHT22;15925;51.222;5.678;2023-02-28T17:26:25;5.50;99.90
28773;DHT22;15925;51.222;5.678;2023-02-28T17:28:52;5.50;99.90
28773;DHT22;15925;51.222;5.678;2023-02-28T17:31:21;5.40;99.90
28773;DHT22;15925;51.222;5.678;2023-02-28T17:33:47;5.30;99.90
28773;DHT22;15925;51.222;5.678;2023-02-28T17:36:15;5.20;99.90
28773;DHT22;15925;51.222;5.678;2023-02-28T17:38:41;5.00;99.90
28773;DHT22;15925;51.222;5.678;2023-02-28T17:41:11;5.10;99.90
28773;DHT22;15925;51.222;5.678;2023-02-28T17:43:37;5.10;99.90
28773;DHT22;15925;51.222;5.678;2023-02-28T17:46:03;4.90;99.90
28773;DHT22;15925;51.222;5.678;2023-02-28T17:48:31;4.90;99.90
28773;DHT22;15925;51.222;5.678;2023-02-28T17:50:56;4.70;99.90
28773;DHT22;15925;51.222;5.678;2023-02-28T17:53:22;4.70;99.90
28773;DHT22;15925;51.222;5.678;2023-02-28T17:55:49;4.70;99.90
28773;DHT22;15925;51.222;5.678;2023-02-28T17:58:15;4.70;99.90
28773;DHT22;15925;51.222;5.678;2023-02-28T18:00:41;4.70;99.90
28773;DHT22;15925;51.222;5.678;2023-02-28T18:03:07;4.70;99.90
28773;DHT22;15925;51.222;5.678;2023-02-28T18:05:33;4.70;99.90